createdAt,value
2023-01-05T00:00:43.122Z,0.00
2023-01-05T00:01:43.045Z,0.00
2023-01-05T00:02:43.064Z,0.00
2023-01-05T00:03:43.011Z,0.00
2023-01-05T00:04:43.004Z,0.00
2023-01-05T00:05:42.998Z,0.00
2023-01-05T00:06:42.975Z,0.00
2023-01-05T00:07:42.962Z,0.00
2023-01-05T00:08:42.966Z,0.00
2023-01-05T00:09:42.946Z,0.00
2023-01-05T00:10:42.965Z,0.00
2023-01-05T00:11:42.927Z,0.00
2023-01-05T00:12:42.923Z,0.00
2023-01-05T00:13:42.964Z,0.00
2023-01-05T00:14:42.972Z,0.00
2023-01-05T00:15:42.876Z,0.00
2023-01-05T00:16:42.959Z,0.00
2023-01-05T00:17:42.855Z,0.00
2023-01-05T00:18:42.852Z,0.00
2023-01-05T00:19:42.841Z,0.00
2023-01-05T00:20:42.849Z,0.00
2023-01-05T00:21:42.869Z,0.00
2023-01-05T00:22:42.906Z,0.00
2023-01-05T00:23:52.131Z,0.00
2023-01-05T00:24:42.917Z,0.00
2023-01-05T00:25:42.803Z,0.00
2023-01-05T00:26:42.764Z,0.00
2023-01-05T00:27:42.775Z,0.00
2023-01-05T00:28:42.747Z,0.00
2023-01-05T00:29:42.726Z,0.00
2023-01-05T00:30:42.767Z,0.00
2023-01-05T00:31:42.747Z,0.00
2023-01-05T00:32:42.708Z,0.00
2023-01-05T00:33:42.690Z,0.00
2023-01-05T00:34:42.675Z,0.00
2023-01-05T00:35:42.667Z,0.00
2023-01-05T00:36:42.673Z,0.00
2023-01-05T00:37:43.153Z,0.00
2023-01-05T00:38:42.632Z,0.00
2023-01-05T00:39:42.683Z,0.00
2023-01-05T00:40:42.620Z,0.00
2023-01-05T00:41:42.608Z,0.00
2023-01-05T00:42:42.597Z,0.00
2023-01-05T00:43:42.587Z,0.00
2023-01-05T00:44:42.563Z,0.00
2023-01-05T00:45:42.664Z,0.00
2023-01-05T00:46:42.585Z,0.00
2023-01-05T00:47:42.559Z,0.00
2023-01-05T00:48:42.522Z,0.00
2023-01-05T00:49:42.511Z,0.00
2023-01-05T00:50:42.539Z,0.00
2023-01-05T00:51:42.489Z,0.00
2023-01-05T00:52:42.480Z,0.00
2023-01-05T00:53:42.492Z,0.00
2023-01-05T00:54:42.459Z,0.00
2023-01-05T00:55:42.445Z,0.00
2023-01-05T00:56:42.438Z,0.00
2023-01-05T00:57:42.515Z,0.00
2023-01-05T00:58:42.434Z,0.00
2023-01-05T00:59:42.406Z,0.00
2023-01-05T01:00:47.468Z,0.00
2023-01-05T01:01:43.432Z,0.00
2023-01-05T01:02:42.433Z,0.00
2023-01-05T01:03:42.373Z,0.00
2023-01-05T01:04:42.343Z,0.00
2023-01-05T01:05:42.359Z,0.00
2023-01-05T01:06:42.323Z,0.00
2023-01-05T01:07:42.364Z,0.00
2023-01-05T01:08:42.319Z,0.00
2023-01-05T01:09:42.332Z,0.00
2023-01-05T01:10:42.306Z,0.00
2023-01-05T01:11:42.265Z,0.00
2023-01-05T01:12:42.290Z,0.00
2023-01-05T01:13:42.289Z,0.00
2023-01-05T01:14:42.243Z,0.00
2023-01-05T01:15:42.221Z,0.00
2023-01-05T01:16:42.276Z,0.00
2023-01-05T01:17:42.243Z,0.00
2023-01-05T01:18:42.254Z,0.00
2023-01-05T01:19:42.264Z,0.00
2023-01-05T01:20:42.172Z,0.00
2023-01-05T01:21:42.169Z,0.00
2023-01-05T01:22:42.142Z,0.00
2023-01-05T01:23:42.153Z,0.00
2023-01-05T01:24:42.179Z,0.00
2023-01-05T01:25:42.117Z,0.00
2023-01-05T01:26:42.118Z,0.00
2023-01-05T01:27:42.122Z,0.00
2023-01-05T01:28:42.091Z,0.00
2023-01-05T01:29:42.118Z,0.00
2023-01-05T01:30:42.201Z,0.00
2023-01-05T01:31:42.061Z,0.00
2023-01-05T01:32:42.074Z,0.00
2023-01-05T01:33:42.068Z,0.00
2023-01-05T01:34:43.746Z,0.00
2023-01-05T01:35:42.031Z,0.00
2023-01-05T01:36:42.001Z,0.00
2023-01-05T01:37:42.052Z,0.00
2023-01-05T01:38:42.627Z,0.00
2023-01-05T01:39:41.988Z,0.00
2023-01-05T01:40:41.961Z,0.00
2023-01-05T01:41:41.955Z,0.00
2023-01-05T01:42:41.940Z,0.00
2023-01-05T01:43:41.926Z,0.00
2023-01-05T01:44:41.941Z,0.00
2023-01-05T01:45:41.938Z,0.00
2023-01-05T01:46:41.895Z,0.00
2023-01-05T01:47:41.887Z,0.00
2023-01-05T01:48:41.873Z,0.00
2023-01-05T01:49:41.904Z,0.00
2023-01-05T01:50:41.894Z,0.00
2023-01-05T01:51:41.858Z,0.00
2023-01-05T01:52:41.878Z,0.00
2023-01-05T01:53:41.821Z,0.00
2023-01-05T01:54:41.804Z,0.00
2023-01-05T01:55:41.789Z,0.00
2023-01-05T01:56:41.783Z,0.00
2023-01-05T01:57:41.812Z,0.00
2023-01-05T01:58:41.782Z,0.00
2023-01-05T01:59:41.750Z,0.00
2023-01-05T02:00:41.748Z,0.00
2023-01-05T02:01:41.850Z,0.00
2023-01-05T02:02:41.752Z,0.00
2023-01-05T02:03:41.743Z,0.00
2023-01-05T02:04:41.758Z,0.00
2023-01-05T02:05:41.696Z,0.00
2023-01-05T02:06:41.689Z,0.00
2023-01-05T02:07:41.684Z,0.00
2023-01-05T02:08:41.658Z,0.00
2023-01-05T02:09:41.648Z,0.00
2023-01-05T02:10:41.643Z,0.00
2023-01-05T02:11:41.627Z,0.00
2023-01-05T02:12:41.619Z,0.00
2023-01-05T02:13:41.648Z,0.00
2023-01-05T02:14:41.589Z,0.00
2023-01-05T02:15:41.571Z,0.00
2023-01-05T02:16:41.572Z,0.00
2023-01-05T02:17:41.623Z,0.00
2023-01-05T02:18:41.546Z,0.00
2023-01-05T02:19:41.552Z,0.00
2023-01-05T02:20:41.523Z,0.00
2023-01-05T02:21:41.516Z,0.00
2023-01-05T02:22:41.561Z,0.00
2023-01-05T02:23:41.525Z,0.00
2023-01-05T02:24:41.532Z,0.00
2023-01-05T02:25:41.479Z,0.00
2023-01-05T02:26:41.462Z,0.00
2023-01-05T02:27:41.447Z,0.00
2023-01-05T02:28:41.439Z,0.00
2023-01-05T02:29:41.448Z,0.00
2023-01-05T02:30:41.446Z,0.00
2023-01-05T02:31:41.421Z,0.00
2023-01-05T02:32:41.410Z,0.00
2023-01-05T02:33:41.386Z,0.00
2023-01-05T02:34:41.380Z,0.00
2023-01-05T02:35:41.358Z,0.00
2023-01-05T02:36:41.385Z,0.00
2023-01-05T02:37:41.340Z,0.00
2023-01-05T02:38:41.353Z,0.00
2023-01-05T02:39:41.321Z,0.00
2023-01-05T02:40:41.302Z,0.00
2023-01-05T02:41:41.299Z,0.00
2023-01-05T02:42:41.708Z,0.00
2023-01-05T02:43:41.282Z,0.00
2023-01-05T02:44:41.291Z,0.00
2023-01-05T02:45:41.298Z,0.00
2023-01-05T02:46:41.245Z,0.00
2023-01-05T02:47:41.233Z,0.00
2023-01-05T02:48:41.226Z,0.00
2023-01-05T02:49:41.247Z,0.00
2023-01-05T02:50:41.207Z,0.00
2023-01-05T02:51:41.187Z,0.00
2023-01-05T02:52:41.180Z,0.00
2023-01-05T02:53:42.433Z,0.00
2023-01-05T02:54:41.323Z,0.00
2023-01-05T02:55:41.171Z,0.00
2023-01-05T02:56:41.140Z,0.00
2023-01-05T02:57:41.119Z,0.00
2023-01-05T02:58:41.141Z,0.00
2023-01-05T02:59:41.125Z,0.00
2023-01-05T03:00:41.102Z,0.00
2023-01-05T03:01:41.209Z,0.00
2023-01-05T03:02:41.242Z,0.00
2023-01-05T03:03:41.166Z,0.00
2023-01-05T03:04:41.055Z,0.00
2023-01-05T03:05:41.039Z,0.00
2023-01-05T03:06:41.025Z,0.00
2023-01-05T03:07:41.018Z,0.00
2023-01-05T03:08:41.016Z,0.00
2023-01-05T03:09:41.013Z,0.00
2023-01-05T03:10:41.019Z,0.00
2023-01-05T03:11:40.972Z,0.00
2023-01-05T03:12:40.981Z,0.00
2023-01-05T03:13:40.944Z,0.00
2023-01-05T03:14:40.938Z,0.00
2023-01-05T03:15:40.977Z,0.00
2023-01-05T03:16:40.965Z,0.00
2023-01-05T03:17:40.965Z,0.00
2023-01-05T03:18:40.889Z,0.00
2023-01-05T03:19:40.907Z,0.00
2023-01-05T03:20:40.914Z,0.00
2023-01-05T03:21:40.870Z,0.00
2023-01-05T03:22:40.853Z,0.00
2023-01-05T03:23:40.841Z,0.00
2023-01-05T03:24:40.825Z,0.00
2023-01-05T03:25:40.816Z,0.00
2023-01-05T03:26:40.854Z,0.00
2023-01-05T03:27:40.804Z,0.00
2023-01-05T03:28:40.823Z,0.00
2023-01-05T03:29:40.771Z,0.00
2023-01-05T03:30:40.804Z,0.00
2023-01-05T03:31:40.758Z,0.00
2023-01-05T03:32:41.276Z,0.00
2023-01-05T03:33:40.736Z,0.00
2023-01-05T03:34:40.737Z,0.00
2023-01-05T03:35:40.737Z,0.00
2023-01-05T03:36:40.699Z,0.00
2023-01-05T03:37:40.694Z,0.00
2023-01-05T03:38:40.672Z,0.00
2023-01-05T03:39:40.673Z,0.00
2023-01-05T03:40:40.669Z,0.00
2023-01-05T03:41:40.651Z,0.00
2023-01-05T03:42:40.666Z,0.00
2023-01-05T03:43:40.626Z,0.00
2023-01-05T03:44:40.611Z,0.00
2023-01-05T03:45:40.597Z,0.00
2023-01-05T03:46:40.735Z,0.00
2023-01-05T03:47:40.588Z,0.00
2023-01-05T03:48:40.601Z,0.00
2023-01-05T03:49:40.561Z,0.00
2023-01-05T03:50:40.564Z,0.00
2023-01-05T03:51:42.148Z,0.00
2023-01-05T03:52:40.527Z,0.00
2023-01-05T03:53:40.562Z,0.00
2023-01-05T03:54:40.501Z,0.00
2023-01-05T03:55:40.495Z,0.00
2023-01-05T03:56:40.497Z,0.00
2023-01-05T03:57:40.473Z,0.00
2023-01-05T03:58:40.500Z,0.00
2023-01-05T03:59:40.449Z,0.00
2023-01-05T04:00:40.440Z,0.00
2023-01-05T04:01:40.636Z,0.00
2023-01-05T04:02:40.628Z,0.00
2023-01-05T04:03:40.444Z,0.00
2023-01-05T04:04:41.155Z,0.00
2023-01-05T04:05:40.439Z,0.00
2023-01-05T04:06:40.371Z,0.00
2023-01-05T04:07:40.416Z,0.00
2023-01-05T04:08:40.382Z,0.00
2023-01-05T04:09:40.364Z,0.00
2023-01-05T04:10:40.332Z,0.00
2023-01-05T04:11:40.327Z,0.00
2023-01-05T04:12:40.312Z,0.00
2023-01-05T04:13:40.308Z,0.00
2023-01-05T04:14:40.312Z,0.00
2023-01-05T04:15:40.339Z,0.00
2023-01-05T04:16:40.339Z,0.00
2023-01-05T04:17:40.254Z,0.00
2023-01-05T04:18:40.248Z,0.00
2023-01-05T04:19:40.251Z,0.00
2023-01-05T04:20:40.222Z,0.00
2023-01-05T04:21:40.223Z,0.00
2023-01-05T04:22:40.193Z,0.00
2023-01-05T04:23:40.199Z,0.00
2023-01-05T04:24:40.181Z,0.00
2023-01-05T04:25:40.159Z,0.00
2023-01-05T04:26:40.166Z,0.00
2023-01-05T04:27:40.141Z,0.00
2023-01-05T04:28:40.132Z,0.00
2023-01-05T04:29:40.115Z,0.00
2023-01-05T04:30:40.120Z,0.00
2023-01-05T04:31:40.165Z,0.00
2023-01-05T04:32:40.099Z,0.00
2023-01-05T04:33:40.078Z,0.00
2023-01-05T04:34:40.075Z,0.00
2023-01-05T04:35:40.076Z,0.00
2023-01-05T04:36:40.057Z,0.00
2023-01-05T04:37:40.103Z,0.00
2023-01-05T04:38:40.040Z,0.00
2023-01-05T04:39:40.013Z,0.00
2023-01-05T04:40:39.998Z,0.00
2023-01-05T04:41:40.010Z,0.00
2023-01-05T04:42:39.995Z,0.00
2023-01-05T04:43:39.966Z,0.00
2023-01-05T04:44:39.963Z,0.00
2023-01-05T04:45:39.944Z,0.00
2023-01-05T04:46:40.013Z,0.00
2023-01-05T04:47:39.988Z,0.00
2023-01-05T04:48:39.916Z,0.00
2023-01-05T04:49:39.922Z,0.00
2023-01-05T04:50:39.896Z,0.00
2023-01-05T04:51:39.881Z,0.00
2023-01-05T04:52:39.883Z,0.00
2023-01-05T04:53:39.891Z,0.00
2023-01-05T04:54:39.893Z,0.00
2023-01-05T04:55:39.872Z,0.00
2023-01-05T04:56:39.834Z,0.00
2023-01-05T04:57:39.820Z,0.00
2023-01-05T04:58:39.853Z,0.00
2023-01-05T04:59:39.809Z,0.00
2023-01-05T05:00:39.782Z,0.00
2023-01-05T05:01:39.915Z,0.00
2023-01-05T05:02:40.060Z,0.00
2023-01-05T05:03:39.773Z,0.00
2023-01-05T05:04:39.783Z,0.00
2023-01-05T05:05:39.732Z,0.00
2023-01-05T05:06:39.731Z,0.00
2023-01-05T05:07:39.735Z,0.00
2023-01-05T05:08:39.706Z,0.00
2023-01-05T05:09:39.689Z,0.00
2023-01-05T05:10:39.686Z,0.00
2023-01-05T05:11:39.673Z,0.00
2023-01-05T05:12:39.690Z,0.00
2023-01-05T05:13:39.662Z,0.00
2023-01-05T05:14:39.656Z,0.00
2023-01-05T05:15:39.704Z,0.00
2023-01-05T05:16:39.616Z,0.00
2023-01-05T05:17:39.648Z,0.00
2023-01-05T05:18:39.629Z,0.00
2023-01-05T05:19:39.581Z,0.00
2023-01-05T05:20:39.565Z,0.00
2023-01-05T05:21:39.564Z,0.00
2023-01-05T05:22:39.552Z,0.00
2023-01-05T05:23:39.593Z,0.00
2023-01-05T05:24:39.528Z,0.00
2023-01-05T05:25:39.507Z,0.00
2023-01-05T05:26:39.504Z,0.00
2023-01-05T05:27:39.497Z,0.00
2023-01-05T05:28:39.485Z,0.00
2023-01-05T05:29:39.518Z,0.00
2023-01-05T05:30:39.467Z,0.00
2023-01-05T05:31:39.492Z,0.00
2023-01-05T05:32:43.990Z,0.00
2023-01-05T05:33:40.438Z,0.00
2023-01-05T05:34:39.463Z,0.00
2023-01-05T05:35:39.427Z,0.00
2023-01-05T05:36:39.396Z,0.00
2023-01-05T05:37:39.376Z,0.00
2023-01-05T05:38:39.447Z,0.00
2023-01-05T05:39:39.368Z,0.00
2023-01-05T05:40:39.344Z,0.00
2023-01-05T05:41:39.346Z,0.00
2023-01-05T05:42:39.357Z,0.00
2023-01-05T05:43:39.315Z,0.00
2023-01-05T05:44:39.410Z,0.00
2023-01-05T05:45:40.219Z,0.00
2023-01-05T05:46:39.333Z,0.00
2023-01-05T05:47:39.332Z,0.00
2023-01-05T05:48:39.298Z,0.00
2023-01-05T05:49:39.315Z,0.00
2023-01-05T05:50:39.270Z,0.00
2023-01-05T05:51:39.238Z,0.00
2023-01-05T05:52:39.216Z,0.00
2023-01-05T05:53:39.200Z,0.00
2023-01-05T05:54:39.201Z,0.00
2023-01-05T05:55:39.224Z,0.00
2023-01-05T05:56:39.190Z,0.00
2023-01-05T05:57:39.162Z,0.00
2023-01-05T05:58:39.152Z,0.00
2023-01-05T05:59:39.152Z,0.00
2023-01-05T06:00:39.126Z,0.00
2023-01-05T06:01:39.281Z,0.00
2023-01-05T06:02:39.279Z,0.00
2023-01-05T06:03:39.123Z,0.00
2023-01-05T06:04:39.110Z,0.00
2023-01-05T06:05:39.122Z,0.00
2023-01-05T06:06:39.133Z,0.00
2023-01-05T06:07:39.093Z,0.00
2023-01-05T06:08:39.053Z,0.00
2023-01-05T06:09:39.050Z,0.00
2023-01-05T06:10:39.025Z,0.00
2023-01-05T06:11:39.018Z,0.00
2023-01-05T06:12:39.023Z,0.00
2023-01-05T06:13:38.983Z,0.00
2023-01-05T06:14:39.000Z,0.00
2023-01-05T06:15:38.991Z,0.00
2023-01-05T06:16:39.009Z,0.00
2023-01-05T06:17:39.014Z,0.00
2023-01-05T06:18:38.968Z,0.00
2023-01-05T06:19:38.961Z,0.00
2023-01-05T06:20:38.957Z,0.00
2023-01-05T06:21:38.953Z,0.00
2023-01-05T06:22:38.908Z,0.00
2023-01-05T06:23:39.042Z,0.00
2023-01-05T06:24:48.264Z,0.00
2023-01-05T06:25:38.861Z,0.00
2023-01-05T06:26:38.885Z,0.00
2023-01-05T06:27:38.835Z,0.00
2023-01-05T06:28:38.858Z,0.00
2023-01-05T06:29:38.835Z,0.00
2023-01-05T06:30:38.805Z,0.00
2023-01-05T06:31:38.864Z,0.00
2023-01-05T06:32:38.789Z,0.00
2023-01-05T06:33:38.785Z,0.00
2023-01-05T06:34:38.791Z,0.00
2023-01-05T06:35:38.753Z,0.00
2023-01-05T06:36:38.757Z,0.00
2023-01-05T06:37:38.731Z,0.00
2023-01-05T06:38:38.748Z,0.00
2023-01-05T06:39:38.716Z,0.00
2023-01-05T06:40:38.734Z,0.00
2023-01-05T06:41:38.690Z,0.00
2023-01-05T06:42:38.684Z,4.00
2023-01-05T06:43:38.659Z,0.00
2023-01-05T06:44:38.667Z,0.00
2023-01-05T06:45:38.757Z,4.00
2023-01-05T06:46:38.635Z,4.00
2023-01-05T06:47:38.629Z,4.00
2023-01-05T06:48:38.631Z,4.00
2023-01-05T06:49:38.596Z,4.00
2023-01-05T06:50:38.602Z,8.00
2023-01-05T06:51:38.576Z,8.00
2023-01-05T06:52:38.573Z,8.00
2023-01-05T06:53:38.582Z,8.00
2023-01-05T06:54:38.588Z,8.00
2023-01-05T06:55:38.543Z,8.00
2023-01-05T06:56:38.525Z,8.00
2023-01-05T06:57:38.526Z,12.00
2023-01-05T06:58:38.509Z,12.00
2023-01-05T06:59:38.501Z,12.00
2023-01-05T07:00:38.495Z,8.00
2023-01-05T07:01:38.621Z,12.00
2023-01-05T07:02:38.465Z,12.00
2023-01-05T07:03:38.566Z,12.00
2023-01-05T07:04:38.471Z,16.00
2023-01-05T07:05:38.444Z,16.00
2023-01-05T07:06:38.423Z,16.00
2023-01-05T07:07:38.419Z,36.00
2023-01-05T07:08:38.403Z,36.00
2023-01-05T07:09:38.387Z,48.00
2023-01-05T07:10:38.442Z,56.00
2023-01-05T07:11:38.369Z,60.00
2023-01-05T07:12:38.353Z,84.00
2023-01-05T07:13:38.338Z,96.00
2023-01-05T07:14:38.377Z,116.00
2023-01-05T07:15:38.317Z,124.00
2023-01-05T07:16:39.246Z,132.00
2023-01-05T07:17:38.302Z,124.00
2023-01-05T07:18:38.282Z,120.00
2023-01-05T07:19:38.277Z,136.00
2023-01-05T07:20:38.264Z,140.00
2023-01-05T07:21:38.256Z,136.00
2023-01-05T07:22:38.376Z,164.00
2023-01-05T07:23:38.238Z,132.00
2023-01-05T07:24:38.223Z,176.00
2023-01-05T07:25:38.226Z,180.00
2023-01-05T07:26:38.212Z,184.00
2023-01-05T07:27:38.212Z,188.00
2023-01-05T07:28:38.232Z,192.00
2023-01-05T07:29:38.177Z,188.00
2023-01-05T07:30:38.155Z,188.00
2023-01-05T07:31:38.202Z,180.00
2023-01-05T07:32:38.137Z,180.00
2023-01-05T07:33:40.292Z,188.00
2023-01-05T07:34:38.115Z,208.00
2023-01-05T07:35:38.101Z,224.00
2023-01-05T07:36:38.105Z,260.00
2023-01-05T07:37:38.082Z,268.00
2023-01-05T07:38:38.111Z,264.00
2023-01-05T07:39:38.086Z,292.00
2023-01-05T07:40:38.048Z,312.00
2023-01-05T07:41:38.037Z,292.00
2023-01-05T07:42:38.057Z,340.00
2023-01-05T07:43:38.025Z,316.00
2023-01-05T07:44:38.021Z,316.00
2023-01-05T07:45:38.158Z,292.00
2023-01-05T07:46:37.989Z,368.00
2023-01-05T07:47:37.977Z,360.00
2023-01-05T07:48:37.975Z,488.00
2023-01-05T07:49:37.989Z,588.00
2023-01-05T07:50:37.939Z,680.00
2023-01-05T07:51:37.939Z,760.00
2023-01-05T07:52:37.922Z,672.00
2023-01-05T07:53:43.936Z,628.00
2023-01-05T07:54:38.920Z,604.00
2023-01-05T07:55:37.913Z,528.00
2023-01-05T07:56:37.871Z,576.00
2023-01-05T07:57:37.876Z,592.00
2023-01-05T07:58:37.866Z,572.00
2023-01-05T07:59:37.854Z,564.00
2023-01-05T08:00:37.826Z,548.00
2023-01-05T08:01:37.965Z,592.00
2023-01-05T08:02:37.873Z,616.00
2023-01-05T08:03:37.799Z,672.00
2023-01-05T08:04:37.840Z,560.00
2023-01-05T08:05:37.790Z,608.00
2023-01-05T08:06:37.776Z,672.00
2023-01-05T08:07:37.743Z,672.00
2023-01-05T08:08:37.758Z,844.00
2023-01-05T08:09:37.739Z,1000.00
2023-01-05T08:10:37.718Z,1104.00
2023-01-05T08:11:37.708Z,872.00
2023-01-05T08:12:37.714Z,1056.00
2023-01-05T08:13:37.694Z,760.00
2023-01-05T08:14:37.688Z,1132.00
2023-01-05T08:15:37.664Z,688.00
2023-01-05T08:16:37.771Z,720.00
2023-01-05T08:17:37.666Z,544.00
2023-01-05T08:18:37.634Z,696.00
2023-01-05T08:19:37.620Z,672.00
2023-01-05T08:20:37.617Z,1408.00
2023-01-05T08:21:37.599Z,1176.00
2023-01-05T08:22:37.606Z,1180.00
2023-01-05T08:23:37.586Z,1588.00
2023-01-05T08:24:37.587Z,1224.00
2023-01-05T08:25:37.561Z,1224.00
2023-01-05T08:26:37.608Z,1400.00
2023-01-05T08:27:37.578Z,8460.00
2023-01-05T08:28:37.526Z,1904.00
2023-01-05T08:29:37.589Z,6892.00
2023-01-05T08:30:37.541Z,7944.00
2023-01-05T08:31:37.857Z,2232.00
2023-01-05T08:32:37.487Z,6824.00
2023-01-05T08:33:37.487Z,2520.00
2023-01-05T08:34:37.465Z,4328.00
2023-01-05T08:35:37.445Z,5032.00
2023-01-05T08:36:37.441Z,10492.00
2023-01-05T08:37:37.423Z,11400.00
2023-01-05T08:38:37.432Z,10848.00
2023-01-05T08:39:37.406Z,8316.00
2023-01-05T08:40:37.400Z,2672.00
2023-01-05T08:41:37.392Z,11612.00
2023-01-05T08:42:37.380Z,4804.00
2023-01-05T08:43:37.380Z,1952.00
2023-01-05T08:44:37.375Z,1152.00
2023-01-05T08:45:37.364Z,1688.00
2023-01-05T08:46:37.348Z,3552.00
2023-01-05T08:47:37.320Z,17728.00
2023-01-05T08:48:37.324Z,1944.00
2023-01-05T08:49:37.335Z,2704.00
2023-01-05T08:50:37.294Z,19008.00
2023-01-05T08:51:37.277Z,15904.00
2023-01-05T08:52:37.263Z,13432.00
2023-01-05T08:53:37.250Z,7908.00
2023-01-05T08:54:37.247Z,2476.00
2023-01-05T08:55:37.277Z,6492.00
2023-01-05T08:56:39.299Z,2392.00
2023-01-05T08:57:37.218Z,6028.00
2023-01-05T08:58:37.196Z,2272.00
2023-01-05T08:59:37.210Z,6484.00
2023-01-05T09:00:37.171Z,3112.00
2023-01-05T09:01:37.365Z,4040.00
2023-01-05T09:02:37.375Z,9416.00
2023-01-05T09:03:37.226Z,11568.00
2023-01-05T09:04:37.137Z,11720.00
2023-01-05T09:05:37.127Z,14688.00
2023-01-05T09:06:37.121Z,11776.00
2023-01-05T09:07:37.095Z,14080.00
2023-01-05T09:08:37.089Z,13536.00
2023-01-05T09:09:37.132Z,6532.00
2023-01-05T09:10:37.079Z,12644.00
2023-01-05T09:11:37.087Z,17216.00
2023-01-05T09:12:37.041Z,12164.00
2023-01-05T09:13:37.035Z,18208.00
2023-01-05T09:14:37.021Z,17504.00
2023-01-05T09:15:37.026Z,16800.00
2023-01-05T09:17:38.036Z,10044.00
2023-01-05T09:18:36.984Z,4604.00
2023-01-05T09:19:36.962Z,6200.00
2023-01-05T09:20:40.014Z,3148.00
2023-01-05T09:21:36.955Z,9464.00
2023-01-05T09:22:36.938Z,8272.00
2023-01-05T09:23:36.921Z,3760.00
2023-01-05T09:24:36.920Z,7680.00
2023-01-05T09:25:36.950Z,5516.00
2023-01-05T09:26:36.900Z,3812.00
2023-01-05T09:27:36.884Z,14752.00
2023-01-05T09:28:36.865Z,9608.00
2023-01-05T09:29:36.862Z,11704.00
2023-01-05T09:30:44.367Z,10616.00
2023-01-05T09:31:37.899Z,6136.00
2023-01-05T09:32:36.819Z,7696.00
2023-01-05T09:33:36.809Z,10140.00
2023-01-05T09:34:36.907Z,11104.00
2023-01-05T09:35:36.788Z,15104.00
2023-01-05T09:36:36.781Z,13700.00
2023-01-05T09:37:36.909Z,16384.00
2023-01-05T09:38:39.667Z,11780.00
2023-01-05T09:39:37.748Z,13040.00
2023-01-05T09:40:36.731Z,13220.00
2023-01-05T09:41:36.723Z,14464.00
2023-01-05T09:42:36.706Z,20448.00
2023-01-05T09:43:36.710Z,3620.00
2023-01-05T09:44:36.721Z,22656.00
2023-01-05T09:45:36.699Z,4844.00
2023-01-05T09:46:36.751Z,5468.00
2023-01-05T09:47:36.687Z,3912.00
2023-01-05T09:48:36.647Z,2704.00
2023-01-05T09:49:36.650Z,2984.00
2023-01-05T09:50:36.734Z,1640.00
2023-01-05T09:51:36.623Z,2432.00
2023-01-05T09:52:38.656Z,2036.00
2023-01-05T09:53:36.629Z,2012.00
2023-01-05T09:54:36.635Z,2372.00
2023-01-05T09:55:36.580Z,1988.00
2023-01-05T09:57:37.562Z,2064.00
2023-01-05T09:58:36.542Z,2208.00
2023-01-05T09:59:36.533Z,1868.00
2023-01-05T10:00:36.531Z,2564.00
2023-01-05T10:01:36.526Z,3924.00
2023-01-05T10:02:36.515Z,2208.00
2023-01-05T10:04:03.202Z,2096.00
2023-01-05T10:04:37.634Z,1692.00
2023-01-05T10:05:36.558Z,992.00
2023-01-05T10:06:36.561Z,1372.00
2023-01-05T10:07:36.441Z,1000.00
2023-01-05T10:08:36.426Z,980.00
2023-01-05T10:09:36.428Z,976.00
2023-01-05T10:10:36.440Z,1132.00
2023-01-05T10:11:36.395Z,1244.00
2023-01-05T10:12:36.391Z,788.00
2023-01-05T10:13:36.369Z,2376.00
2023-01-05T10:14:36.382Z,1412.00
2023-01-05T10:15:36.493Z,1760.00
2023-01-05T10:16:36.411Z,2632.00
2023-01-05T10:17:41.924Z,1456.00
2023-01-05T10:18:37.318Z,852.00
2023-01-05T10:19:36.312Z,880.00
2023-01-05T10:20:36.316Z,1296.00
2023-01-05T10:21:36.305Z,1900.00
2023-01-05T10:22:38.822Z,1044.00
2023-01-05T10:23:36.263Z,1276.00
2023-01-05T10:24:36.255Z,1636.00
2023-01-05T10:25:36.238Z,2044.00
2023-01-05T10:27:06.448Z,1688.00
2023-01-05T10:27:37.237Z,1540.00
2023-01-05T10:28:36.212Z,1352.00
2023-01-05T10:29:36.200Z,1420.00
2023-01-05T10:30:36.192Z,1264.00
2023-01-05T10:31:36.231Z,1084.00
2023-01-05T10:32:49.065Z,1184.00
2023-01-05T10:33:41.511Z,1540.00
2023-01-05T10:34:37.146Z,1052.00
2023-01-05T10:36:00.187Z,1208.00
2023-01-05T10:37:08.061Z,1048.00
2023-01-05T10:37:37.124Z,1340.00
2023-01-05T10:38:36.349Z,1664.00
2023-01-05T10:39:36.088Z,1528.00
2023-01-05T10:40:36.073Z,1908.00
2023-01-05T10:41:36.077Z,2236.00
2023-01-05T10:42:36.070Z,1680.00
2023-01-05T10:43:36.082Z,1812.00
2023-01-05T10:44:36.055Z,1988.00
2023-01-05T10:45:46.062Z,2316.00
2023-01-05T10:46:41.994Z,2572.00
2023-01-05T10:47:36.073Z,3256.00
2023-01-05T10:48:35.995Z,2520.00
2023-01-05T10:49:35.978Z,2252.00
2023-01-05T10:50:35.994Z,2260.00
2023-01-05T10:51:35.952Z,1912.00
2023-01-05T10:52:35.985Z,2088.00
2023-01-05T10:53:35.936Z,1600.00
2023-01-05T10:54:36.045Z,2256.00
2023-01-05T10:55:35.917Z,1520.00
2023-01-05T10:56:35.957Z,1744.00
2023-01-05T10:57:37.004Z,2888.00
2023-01-05T10:58:35.908Z,3324.00
2023-01-05T10:59:35.929Z,3700.00
2023-01-05T11:00:35.862Z,2864.00
2023-01-05T11:01:35.910Z,2136.00
2023-01-05T11:02:36.031Z,1756.00
2023-01-05T11:04:14.801Z,2368.00
2023-01-05T11:04:36.931Z,2932.00
2023-01-05T11:05:35.915Z,2512.00
2023-01-05T11:06:35.791Z,2240.00
2023-01-05T11:07:35.827Z,2316.00
2023-01-05T11:08:35.768Z,3308.00
2023-01-05T11:09:35.756Z,3108.00
2023-01-05T11:10:35.859Z,2976.00
2023-01-05T11:11:35.736Z,1716.00
2023-01-05T11:12:35.719Z,2700.00
2023-01-05T11:13:35.747Z,3428.00
2023-01-05T11:14:35.708Z,2968.00
2023-01-05T11:15:35.793Z,1900.00
2023-01-05T11:16:35.675Z,1368.00
2023-01-05T11:17:35.663Z,1064.00
2023-01-05T11:18:35.655Z,1312.00
2023-01-05T11:19:35.672Z,1284.00
2023-01-05T11:20:35.636Z,1564.00
2023-01-05T11:21:35.621Z,1112.00
2023-01-05T11:22:35.631Z,1124.00
2023-01-05T11:23:35.629Z,1384.00
2023-01-05T11:24:35.620Z,1460.00
2023-01-05T11:25:35.598Z,1464.00
2023-01-05T11:26:35.682Z,1688.00
2023-01-05T11:27:35.563Z,1224.00
2023-01-05T11:28:35.561Z,860.00
2023-01-05T11:29:35.565Z,1260.00
2023-01-05T11:30:35.616Z,1176.00
2023-01-05T11:31:35.632Z,1088.00
2023-01-05T11:32:35.541Z,1084.00
2023-01-05T11:33:35.545Z,1704.00
2023-01-05T11:34:35.553Z,1304.00
2023-01-05T11:35:35.478Z,1568.00
2023-01-05T11:36:35.465Z,1652.00
2023-01-05T11:37:35.536Z,1764.00
2023-01-05T11:38:35.445Z,1484.00
2023-01-05T11:39:35.438Z,4924.00
2023-01-05T11:40:35.441Z,1956.00
2023-01-05T11:41:35.410Z,1788.00
2023-01-05T11:42:35.551Z,1308.00
2023-01-05T11:43:35.380Z,1972.00
2023-01-05T11:44:35.377Z,3184.00
2023-01-05T11:45:35.398Z,3440.00
2023-01-05T11:46:35.444Z,2580.00
2023-01-05T11:47:41.451Z,1716.00
2023-01-05T11:48:36.329Z,2052.00
2023-01-05T11:49:35.316Z,2384.00
2023-01-05T11:50:35.346Z,1280.00
2023-01-05T11:51:35.298Z,872.00
2023-01-05T11:52:35.292Z,1016.00
2023-01-05T11:53:35.300Z,1668.00
2023-01-05T11:54:35.268Z,1900.00
2023-01-05T11:55:35.261Z,1708.00
2023-01-05T11:56:35.280Z,1520.00
2023-01-05T11:57:35.223Z,1496.00
2023-01-05T11:58:35.233Z,1568.00
2023-01-05T11:59:35.202Z,1000.00
2023-01-05T12:00:35.313Z,900.00
2023-01-05T12:01:35.225Z,976.00
2023-01-05T12:02:35.220Z,1252.00
2023-01-05T12:03:35.224Z,1076.00
2023-01-05T12:04:35.228Z,1148.00
2023-01-05T12:05:35.145Z,1456.00
2023-01-05T12:06:35.153Z,1488.00
2023-01-05T12:07:35.127Z,1148.00
2023-01-05T12:08:35.131Z,1360.00
2023-01-05T12:09:36.067Z,1932.00
2023-01-05T12:10:35.089Z,1948.00
2023-01-05T12:11:35.105Z,1720.00
2023-01-05T12:12:35.084Z,2328.00
2023-01-05T12:13:35.056Z,3292.00
2023-01-05T12:14:35.153Z,2860.00
2023-01-05T12:15:35.037Z,1808.00
2023-01-05T12:16:35.136Z,1664.00
2023-01-05T12:17:35.043Z,1524.00
2023-01-05T12:18:35.021Z,2324.00
2023-01-05T12:19:34.983Z,3636.00
2023-01-05T12:20:34.989Z,4152.00
2023-01-05T12:21:34.969Z,3840.00
2023-01-05T12:22:34.950Z,4280.00
2023-01-05T12:23:34.968Z,2800.00
2023-01-05T12:24:34.941Z,1696.00
2023-01-05T12:25:34.915Z,1916.00
2023-01-05T12:26:34.913Z,2952.00
2023-01-05T12:27:34.913Z,3164.00
2023-01-05T12:28:40.946Z,1728.00
2023-01-05T12:31:29.515Z,1948.00
2023-01-05T12:34:35.826Z,1752.00
2023-01-05T12:35:34.808Z,1564.00
2023-01-05T12:36:34.833Z,1980.00
2023-01-05T12:37:34.798Z,1288.00
2023-01-05T12:38:34.781Z,1648.00
2023-01-05T12:39:34.798Z,1612.00
2023-01-05T12:40:34.766Z,2056.00
2023-01-05T12:41:34.800Z,1364.00
2023-01-05T12:42:34.731Z,1468.00
2023-01-05T12:43:34.733Z,1256.00
2023-01-05T12:44:34.711Z,1364.00
2023-01-05T12:45:34.709Z,1228.00
2023-01-05T12:46:34.859Z,1528.00
2023-01-05T12:47:34.711Z,1628.00
2023-01-05T12:48:34.678Z,1416.00
2023-01-05T12:49:34.666Z,1416.00
2023-01-05T12:50:34.682Z,1412.00
2023-01-05T12:51:34.644Z,1080.00